createdAt,value
2023-01-18T08:32:43.914Z,42.72
2023-01-18T08:32:55.245Z,42.52
2023-01-18T08:33:06.794Z,42.23
2023-01-18T08:33:18.074Z,42.13
2023-01-18T08:33:29.616Z,42.07
2023-01-18T08:33:40.915Z,42.04
2023-01-18T08:33:52.459Z,41.98
2023-01-18T08:34:03.744Z,41.98
2023-01-18T08:34:15.307Z,41.94
2023-01-18T08:34:26.586Z,41.93
2023-01-18T08:34:38.156Z,41.93
2023-01-18T08:34:49.458Z,41.91
2023-01-18T08:35:01.014Z,41.90
2023-01-18T08:35:12.317Z,41.88
2023-01-18T08:35:23.920Z,41.88
2023-01-18T08:35:35.196Z,41.88
2023-01-18T08:35:46.731Z,41.84
2023-01-18T08:35:58.020Z,41.85
2023-01-18T08:36:09.567Z,41.83
2023-01-18T08:36:20.864Z,41.86
2023-01-18T08:36:32.426Z,41.84
2023-01-18T08:36:43.729Z,41.84
2023-01-18T08:36:55.285Z,41.82
2023-01-18T08:37:06.568Z,41.83
2023-01-18T08:37:18.117Z,41.85
2023-01-18T08:37:29.401Z,41.82
2023-01-18T08:37:40.940Z,41.83
2023-01-18T08:37:52.253Z,41.80
2023-01-18T08:38:03.798Z,41.80
2023-01-18T08:38:15.098Z,41.82
2023-01-18T08:38:26.655Z,41.80
2023-01-18T08:38:37.968Z,41.85
2023-01-18T08:38:49.531Z,41.80
2023-01-18T08:39:00.812Z,41.82
2023-01-18T08:39:12.403Z,41.80
2023-01-18T08:39:23.700Z,41.82
2023-01-18T08:39:35.252Z,41.79
2023-01-18T08:39:46.545Z,41.79
2023-01-18T08:39:58.085Z,41.80
2023-01-18T08:40:09.381Z,41.80
2023-01-18T08:40:20.919Z,41.81
2023-01-18T08:40:32.224Z,41.81
2023-01-18T08:40:43.786Z,41.81
2023-01-18T08:40:55.072Z,41.80
2023-01-18T08:41:06.625Z,41.80
2023-01-18T08:41:17.910Z,41.80
2023-01-18T08:41:29.481Z,41.81
2023-01-18T08:41:40.773Z,41.80
2023-01-18T08:41:52.326Z,41.81
2023-01-18T08:42:03.646Z,41.82
2023-01-18T08:42:15.205Z,41.81
2023-01-18T08:42:26.501Z,41.83
2023-01-18T08:42:38.050Z,41.82
2023-01-18T08:42:49.344Z,41.79
2023-01-18T08:43:01.277Z,41.82
2023-01-18T08:43:13.025Z,41.78
2023-01-18T08:43:24.325Z,41.80
2023-01-18T08:43:35.876Z,41.79
2023-01-18T08:43:47.164Z,41.82
2023-01-18T08:43:58.706Z,41.80
2023-01-18T08:44:10.100Z,41.80
2023-01-18T08:44:21.634Z,41.82
2023-01-18T08:44:32.970Z,41.82
2023-01-18T08:44:44.513Z,41.80
2023-01-18T08:44:55.789Z,41.81
2023-01-18T08:45:07.325Z,41.79
2023-01-18T08:45:18.608Z,41.80
2023-01-18T08:45:30.156Z,41.82
2023-01-18T08:45:41.462Z,41.83
2023-01-18T08:45:53.008Z,41.82
2023-01-18T08:46:04.342Z,41.82
2023-01-18T08:46:15.978Z,41.82
2023-01-18T08:46:27.428Z,41.82
2023-01-18T08:46:39.115Z,41.83
2023-01-18T08:46:50.502Z,41.83
2023-01-18T08:47:02.056Z,41.84
2023-01-18T08:47:13.360Z,41.84
2023-01-18T08:47:24.915Z,41.86
2023-01-18T08:47:36.222Z,41.84
2023-01-18T08:47:47.795Z,41.82
2023-01-18T08:47:59.098Z,41.83
2023-01-18T08:48:10.699Z,41.85
2023-01-18T08:48:21.993Z,41.87
2023-01-18T08:48:33.540Z,41.85
2023-01-18T08:48:44.852Z,41.85
2023-01-18T08:48:56.406Z,41.83
2023-01-18T08:49:07.740Z,41.85
2023-01-18T08:49:19.285Z,41.84
2023-01-18T08:49:30.562Z,41.84
2023-01-18T08:49:42.111Z,41.85
2023-01-18T08:49:53.407Z,41.83
2023-01-18T08:50:04.950Z,41.88
2023-01-18T08:50:16.240Z,41.86
2023-01-18T08:50:27.802Z,41.83
2023-01-18T08:50:39.154Z,41.85
2023-01-18T08:50:51.768Z,41.85
2023-01-18T08:51:01.005Z,41.81
2023-01-18T08:51:12.555Z,41.83
2023-01-18T08:51:23.844Z,41.85
2023-01-18T08:51:35.405Z,41.84
2023-01-18T08:51:46.699Z,41.85
2023-01-18T08:51:58.251Z,41.87
2023-01-18T08:52:09.532Z,41.86
2023-01-18T08:52:21.071Z,41.82
2023-01-18T08:52:32.357Z,41.84
2023-01-18T08:52:43.896Z,41.85
2023-01-18T08:52:55.176Z,41.85
2023-01-18T08:53:06.712Z,41.85
2023-01-18T08:53:18.013Z,41.84
2023-01-18T08:53:29.556Z,41.87
2023-01-18T08:53:40.848Z,41.87
2023-01-18T08:53:52.406Z,41.83
2023-01-18T08:54:03.703Z,41.86
2023-01-18T08:54:15.251Z,41.86
2023-01-18T08:54:26.539Z,41.84
2023-01-18T08:54:38.122Z,41.85
2023-01-18T08:54:49.478Z,41.83
2023-01-18T08:55:01.025Z,41.86
2023-01-18T08:55:12.316Z,41.86
2023-01-18T08:55:23.872Z,41.83
2023-01-18T08:55:35.185Z,41.86
2023-01-18T08:55:46.735Z,41.84
2023-01-18T08:55:58.027Z,41.85
2023-01-18T08:56:09.577Z,41.86
2023-01-18T08:56:20.860Z,41.85
2023-01-18T08:56:32.395Z,41.84
2023-01-18T08:56:43.740Z,41.86
2023-01-18T08:56:55.281Z,41.84
2023-01-18T08:57:06.583Z,41.86
2023-01-18T08:57:18.121Z,41.85
2023-01-18T08:57:29.428Z,41.86
2023-01-18T08:57:40.989Z,41.85
2023-01-18T08:57:52.272Z,41.85
2023-01-18T08:58:03.826Z,41.85
2023-01-18T08:58:15.131Z,41.87
2023-01-18T08:58:26.730Z,41.83
2023-01-18T08:58:38.015Z,41.84
2023-01-18T08:58:49.599Z,41.86
2023-01-18T08:59:01.005Z,41.84
2023-01-18T08:59:12.692Z,41.84
2023-01-18T08:59:24.150Z,41.83
2023-01-18T08:59:35.783Z,41.84
2023-01-18T08:59:47.085Z,41.85
2023-01-18T08:59:58.639Z,41.87
2023-01-18T09:00:09.932Z,41.83
2023-01-18T09:00:21.482Z,41.84
2023-01-18T09:00:32.803Z,41.83
2023-01-18T09:00:44.367Z,41.83
2023-01-18T09:00:55.753Z,41.84
2023-01-18T09:01:07.353Z,41.82
2023-01-18T09:01:18.920Z,41.83
2023-01-18T09:01:30.614Z,41.88
2023-01-18T09:01:41.943Z,41.84
2023-01-18T09:01:53.574Z,41.84
2023-01-18T09:02:04.953Z,41.84
2023-01-18T09:02:16.623Z,41.83
2023-01-18T09:02:27.998Z,41.84
2023-01-18T09:02:39.672Z,41.85
2023-01-18T09:02:51.101Z,41.86
2023-01-18T09:03:03.609Z,41.83
2023-01-18T09:03:13.200Z,41.83
2023-01-18T09:03:24.867Z,41.82
2023-01-18T09:03:36.199Z,41.83
2023-01-18T09:03:47.743Z,41.80
2023-01-18T09:03:59.066Z,41.84
2023-01-18T09:04:10.623Z,41.83
2023-01-18T09:04:21.914Z,41.82
2023-01-18T09:04:33.463Z,41.82
2023-01-18T09:04:44.761Z,41.81
2023-01-18T09:04:56.321Z,41.81
2023-01-18T09:05:07.614Z,41.82
2023-01-18T09:05:19.145Z,41.80
2023-01-18T09:05:30.427Z,41.83
2023-01-18T09:05:41.981Z,41.81
2023-01-18T09:05:53.272Z,41.82
2023-01-18T09:06:04.836Z,41.80
2023-01-18T09:06:16.140Z,41.82
2023-01-18T09:06:27.682Z,41.83
2023-01-18T09:06:38.983Z,41.81
2023-01-18T09:06:50.519Z,41.82
2023-01-18T09:07:01.818Z,41.79
2023-01-18T09:07:13.374Z,41.78
2023-01-18T09:07:24.676Z,41.80
2023-01-18T09:07:36.217Z,41.79
2023-01-18T09:07:47.545Z,41.79
2023-01-18T09:07:59.102Z,41.81
2023-01-18T09:08:10.384Z,41.80
2023-01-18T09:08:21.933Z,41.79
2023-01-18T09:08:33.222Z,41.77
2023-01-18T09:08:44.811Z,41.78
2023-01-18T09:08:56.099Z,41.79
2023-01-18T09:09:07.647Z,41.81
2023-01-18T09:09:18.952Z,41.79
2023-01-18T09:09:30.496Z,41.80
2023-01-18T09:09:41.781Z,41.80
2023-01-18T09:09:53.332Z,41.77
2023-01-18T09:10:04.621Z,41.78
2023-01-18T09:10:16.201Z,41.77
2023-01-18T09:10:27.487Z,41.80
2023-01-18T09:10:39.027Z,41.78
2023-01-18T09:10:50.352Z,41.78
2023-01-18T09:11:01.892Z,41.78
2023-01-18T09:11:13.195Z,41.79
2023-01-18T09:11:24.737Z,41.77
2023-01-18T09:11:36.022Z,41.78
2023-01-18T09:11:47.570Z,41.77
2023-01-18T09:11:58.861Z,41.79
2023-01-18T09:12:10.403Z,41.73
2023-01-18T09:12:21.708Z,41.77
2023-01-18T09:12:33.261Z,41.74
2023-01-18T09:12:44.558Z,41.76
2023-01-18T09:12:56.614Z,41.78
2023-01-18T09:13:08.426Z,41.74
2023-01-18T09:13:19.713Z,41.76
2023-01-18T09:13:31.259Z,41.75
2023-01-18T09:13:59.366Z,41.77
2023-01-18T09:14:01.929Z,41.92
2023-01-18T09:14:06.458Z,41.90
2023-01-18T09:14:17.745Z,41.83
2023-01-18T09:14:29.299Z,41.76
2023-01-18T09:14:40.628Z,41.75
2023-01-18T09:14:52.176Z,41.75
2023-01-18T09:15:03.485Z,41.76
2023-01-18T09:15:15.042Z,41.74
2023-01-18T09:15:26.345Z,41.74
2023-01-18T09:15:37.889Z,41.75
2023-01-18T09:15:49.188Z,41.76
2023-01-18T09:16:00.832Z,41.74
2023-01-18T09:16:12.175Z,41.77
2023-01-18T09:16:23.781Z,41.76
2023-01-18T09:16:35.128Z,41.73
2023-01-18T09:16:46.682Z,41.72
2023-01-18T09:16:57.967Z,41.75
2023-01-18T09:17:09.519Z,41.73
2023-01-18T09:17:20.806Z,41.74
2023-01-18T09:17:32.340Z,41.74
2023-01-18T09:17:43.634Z,41.74
2023-01-18T09:17:55.222Z,41.72
2023-01-18T09:18:06.563Z,41.71
2023-01-18T09:18:18.108Z,41.71
2023-01-18T09:18:29.404Z,41.71
2023-01-18T09:18:40.949Z,41.75
2023-01-18T09:18:52.242Z,41.73
2023-01-18T09:19:03.838Z,41.70
2023-01-18T09:19:15.145Z,41.70
2023-01-18T09:19:26.699Z,41.69
2023-01-18T09:19:38.016Z,41.71
2023-01-18T09:19:49.548Z,41.72
2023-01-18T09:20:00.837Z,41.69
2023-01-18T09:20:12.376Z,41.72
2023-01-18T09:20:23.663Z,41.71
2023-01-18T09:20:35.203Z,41.70
2023-01-18T09:20:46.507Z,41.70
2023-01-18T09:20:58.065Z,41.69
2023-01-18T09:21:09.373Z,41.67
2023-01-18T09:21:20.929Z,41.70
2023-01-18T09:21:32.258Z,41.70
2023-01-18T09:21:43.805Z,41.71
2023-01-18T09:21:55.102Z,41.72
2023-01-18T09:22:06.649Z,41.68
2023-01-18T09:22:17.935Z,41.70
2023-01-18T09:22:29.470Z,41.70
2023-01-18T09:22:40.763Z,41.69
2023-01-18T09:22:52.319Z,41.70
2023-01-18T09:23:03.607Z,41.67
2023-01-18T09:23:15.165Z,41.68
2023-01-18T09:23:26.459Z,41.69
2023-01-18T09:23:38.007Z,41.66
2023-01-18T09:23:49.338Z,41.70
2023-01-18T09:24:00.881Z,41.69
2023-01-18T09:24:12.230Z,41.69
2023-01-18T09:24:23.790Z,41.69
2023-01-18T09:24:35.079Z,41.67
2023-01-18T09:24:46.610Z,41.68
2023-01-18T09:24:57.913Z,41.65
2023-01-18T09:25:09.457Z,41.65
2023-01-18T09:25:20.749Z,41.65
2023-01-18T09:25:32.316Z,41.65
2023-01-18T09:25:43.618Z,41.65
2023-01-18T09:25:55.173Z,41.64
2023-01-18T09:26:06.448Z,41.68
2023-01-18T09:26:17.995Z,41.67
2023-01-18T09:26:29.284Z,41.66
2023-01-18T09:26:40.840Z,41.66
2023-01-18T09:26:52.145Z,41.67
2023-01-18T09:27:03.692Z,41.67
2023-01-18T09:27:14.992Z,41.65
2023-01-18T09:27:26.551Z,41.63
2023-01-18T09:27:37.848Z,41.68
2023-01-18T09:27:49.379Z,41.64
2023-01-18T09:28:00.658Z,41.67
2023-01-18T09:28:12.203Z,41.63
2023-01-18T09:28:23.502Z,41.64
2023-01-18T09:28:35.047Z,41.65
2023-01-18T09:28:46.337Z,41.66
2023-01-18T09:28:57.883Z,41.64
2023-01-18T09:29:09.174Z,41.65
2023-01-18T09:29:20.771Z,41.67
2023-01-18T09:29:32.080Z,41.67
2023-01-18T09:29:43.634Z,41.63
2023-01-18T09:29:54.930Z,41.63
2023-01-18T09:30:06.484Z,41.63
2023-01-18T09:30:17.758Z,41.63
2023-01-18T09:30:29.297Z,41.62
2023-01-18T09:30:40.582Z,41.63
2023-01-18T09:30:52.115Z,41.61
2023-01-18T09:31:03.426Z,41.63
2023-01-18T09:31:15.032Z,41.64
2023-01-18T09:31:26.411Z,41.62
2023-01-18T09:31:38.098Z,41.61
2023-01-18T09:31:49.534Z,41.63
2023-01-18T09:32:01.090Z,41.64
2023-01-18T09:32:12.387Z,41.62
2023-01-18T09:32:23.949Z,41.63
2023-01-18T09:32:35.231Z,41.60
2023-01-18T09:32:46.786Z,41.63
2023-01-18T09:32:58.571Z,41.61
2023-01-18T09:33:10.388Z,41.62
2023-01-18T09:33:21.685Z,41.64
2023-01-18T09:33:37.788Z,41.63
2023-01-18T09:33:52.859Z,41.72
2023-01-18T09:34:01.000Z,41.74
2023-01-18T09:34:18.986Z,41.77
2023-01-18T09:34:20.933Z,41.78
2023-01-18T09:34:32.303Z,41.73
2023-01-18T09:34:43.863Z,41.65
2023-01-18T09:34:55.193Z,41.65
2023-01-18T09:35:06.756Z,41.63
2023-01-18T09:35:18.054Z,41.63
2023-01-18T09:35:29.619Z,41.62
2023-01-18T09:35:40.918Z,41.61
2023-01-18T09:35:52.457Z,41.61
2023-01-18T09:36:03.730Z,41.60
2023-01-18T09:36:15.268Z,41.63
2023-01-18T09:36:27.065Z,41.63
2023-01-18T09:36:38.662Z,41.63
2023-01-18T09:36:49.954Z,41.63
2023-01-18T09:37:01.528Z,41.62
2023-01-18T09:37:12.811Z,41.60
2023-01-18T09:37:24.363Z,41.62
2023-01-18T09:37:35.660Z,41.61
2023-01-18T09:37:47.227Z,41.61
2023-01-18T09:37:58.527Z,41.58
2023-01-18T09:38:10.059Z,41.60
2023-01-18T09:38:21.336Z,41.61
2023-01-18T09:38:32.877Z,41.60
2023-01-18T09:38:44.166Z,41.59
2023-01-18T09:38:55.747Z,41.61
2023-01-18T09:39:07.069Z,41.57
2023-01-18T09:39:18.610Z,41.61
2023-01-18T09:39:33.375Z,41.61
2023-01-18T09:39:51.258Z,41.74
2023-01-18T09:39:53.857Z,41.76
2023-01-18T09:40:05.162Z,41.67
2023-01-18T09:40:16.732Z,41.62
2023-01-18T09:40:28.028Z,41.63
2023-01-18T09:40:39.620Z,41.60
2023-01-18T09:40:50.945Z,41.62
2023-01-18T09:41:02.560Z,41.63
2023-01-18T09:41:14.829Z,41.61
2023-01-18T09:41:24.035Z,41.63
2023-01-18T09:41:35.576Z,41.61
2023-01-18T09:41:46.913Z,41.62
2023-01-18T09:41:58.497Z,41.59
2023-01-18T09:42:09.819Z,41.58
2023-01-18T09:42:21.370Z,41.60
2023-01-18T09:42:32.646Z,41.60
2023-01-18T09:42:44.189Z,41.57
2023-01-18T09:42:55.574Z,41.59
2023-01-18T09:43:07.114Z,41.59
2023-01-18T09:43:18.407Z,41.59
2023-01-18T09:43:29.953Z,41.59
2023-01-18T09:43:41.237Z,41.57
2023-01-18T09:43:52.800Z,41.59
2023-01-18T09:44:04.102Z,41.61
2023-01-18T09:44:15.673Z,41.59
2023-01-18T09:44:27.013Z,41.59
2023-01-18T09:44:38.582Z,41.56
2023-01-18T09:44:49.893Z,41.58
2023-01-18T09:45:01.448Z,41.56
2023-01-18T09:45:12.731Z,41.56
2023-01-18T09:45:24.274Z,41.58
2023-01-18T09:45:35.593Z,41.60
2023-01-18T09:45:47.130Z,41.60
2023-01-18T09:45:58.404Z,41.57
2023-01-18T09:46:09.964Z,41.56
2023-01-18T09:46:21.289Z,41.58
2023-01-18T09:46:32.961Z,41.58
2023-01-18T09:46:44.448Z,41.58
2023-01-18T09:46:56.106Z,41.58
2023-01-18T09:47:07.425Z,41.58
2023-01-18T09:47:18.982Z,41.59
2023-01-18T09:47:30.298Z,41.57
2023-01-18T09:47:41.852Z,41.58
2023-01-18T09:47:53.169Z,41.60
2023-01-18T09:48:04.738Z,41.58
2023-01-18T09:48:16.020Z,41.59
2023-01-18T09:48:27.559Z,41.56
2023-01-18T09:48:38.857Z,41.58
2023-01-18T09:48:50.400Z,41.57
2023-01-18T09:49:01.683Z,41.57
2023-01-18T09:49:13.229Z,41.58
2023-01-18T09:49:24.517Z,41.55
2023-01-18T09:49:36.058Z,41.56
2023-01-18T09:49:47.360Z,41.59
2023-01-18T09:49:58.936Z,41.57
2023-01-18T09:50:10.223Z,41.58
2023-01-18T09:50:21.789Z,41.57
2023-01-18T09:50:33.075Z,41.58
2023-01-18T09:50:44.624Z,41.56
2023-01-18T09:50:55.918Z,41.56
2023-01-18T09:51:07.478Z,41.55
2023-01-18T09:51:18.784Z,41.56
2023-01-18T09:51:30.327Z,41.57
2023-01-18T09:51:41.626Z,41.56
2023-01-18T09:51:53.186Z,41.56
2023-01-18T09:52:04.478Z,41.56
2023-01-18T09:52:16.038Z,41.60
2023-01-18T09:52:27.326Z,41.55
2023-01-18T09:52:38.868Z,41.58
2023-01-18T09:52:50.172Z,41.55
2023-01-18T09:53:02.123Z,41.57
2023-01-18T09:53:13.793Z,41.54
2023-01-18T09:53:25.081Z,41.56
2023-01-18T09:53:36.657Z,41.55
2023-01-18T09:53:48.016Z,41.56
2023-01-18T09:53:59.562Z,41.57
2023-01-18T09:54:10.842Z,41.56
2023-01-18T09:54:22.425Z,41.55
2023-01-18T09:54:33.727Z,41.54
2023-01-18T09:54:45.286Z,41.58
2023-01-18T09:54:56.573Z,41.58
2023-01-18T09:55:08.144Z,41.56
2023-01-18T09:55:19.427Z,41.55
2023-01-18T09:55:30.976Z,41.55
2023-01-18T09:55:42.259Z,41.56
2023-01-18T09:55:53.810Z,41.56
2023-01-18T09:56:05.100Z,41.57
2023-01-18T09:56:16.642Z,41.56
2023-01-18T09:56:27.937Z,41.56
2023-01-18T09:56:39.485Z,41.57
2023-01-18T09:56:50.772Z,41.55
2023-01-18T09:57:02.317Z,41.55
2023-01-18T09:57:13.625Z,41.56
2023-01-18T09:57:25.175Z,41.56
2023-01-18T09:57:36.465Z,41.55
2023-01-18T09:57:48.000Z,41.56
2023-01-18T09:57:59.313Z,41.55
2023-01-18T09:58:10.867Z,41.55
2023-01-18T09:58:22.172Z,41.55
2023-01-18T09:58:33.716Z,41.56
2023-01-18T09:58:44.995Z,41.57
2023-01-18T09:58:56.536Z,41.56
2023-01-18T09:59:07.837Z,41.53
2023-01-18T09:59:19.384Z,41.55
2023-01-18T09:59:30.681Z,41.55
2023-01-18T09:59:42.224Z,41.54
2023-01-18T09:59:53.515Z,41.56
2023-01-18T10:00:05.122Z,41.57
2023-01-18T10:00:16.479Z,41.58
2023-01-18T10:00:28.166Z,41.57
2023-01-18T10:00:39.554Z,41.57
2023-01-18T10:00:51.261Z,41.58
2023-01-18T10:01:02.845Z,41.56
2023-01-18T10:01:14.696Z,41.56
2023-01-18T10:01:26.160Z,41.57
2023-01-18T10:01:37.927Z,41.59
2023-01-18T10:01:49.486Z,41.57
2023-01-18T10:02:01.334Z,41.56
2023-01-18T10:02:12.833Z,41.58
2023-01-18T10:02:24.515Z,41.56
2023-01-18T10:02:35.902Z,41.58
2023-01-18T10:02:47.532Z,41.56
2023-01-18T10:02:59.177Z,41.58
2023-01-18T10:03:10.931Z,41.59
2023-01-18T10:03:22.237Z,41.57
2023-01-18T10:03:33.787Z,41.58
2023-01-18T10:03:45.081Z,41.57
2023-01-18T10:03:56.649Z,41.58
2023-01-18T10:04:07.949Z,41.56
2023-01-18T10:04:19.498Z,41.58
2023-01-18T10:04:30.810Z,41.58
2023-01-18T10:04:42.361Z,41.57
2023-01-18T10:04:53.654Z,41.56
2023-01-18T10:05:05.317Z,41.56
2023-01-18T10:05:16.605Z,41.57
2023-01-18T10:05:28.369Z,41.58
2023-01-18T10:05:39.666Z,41.58
2023-01-18T10:05:51.210Z,41.56
2023-01-18T10:06:02.506Z,41.55
2023-01-18T10:06:14.057Z,41.56
2023-01-18T10:06:25.399Z,41.55
2023-01-18T10:06:36.952Z,41.56
2023-01-18T10:06:48.247Z,41.57
2023-01-18T10:06:59.786Z,41.56
2023-01-18T10:07:11.086Z,41.56
2023-01-18T10:07:22.632Z,41.56
2023-01-18T10:07:33.910Z,41.58
2023-01-18T10:07:45.458Z,41.57
2023-01-18T10:07:56.739Z,41.57
2023-01-18T10:08:08.291Z,41.55
2023-01-18T10:08:19.578Z,41.56
2023-01-18T10:08:31.127Z,41.57
2023-01-18T10:08:42.415Z,41.58
2023-01-18T10:08:53.947Z,41.58
2023-01-18T10:09:05.239Z,41.55
2023-01-18T10:09:16.783Z,41.57
2023-01-18T10:09:28.065Z,41.55
2023-01-18T10:09:39.636Z,41.58
2023-01-18T10:09:50.946Z,41.55
2023-01-18T10:10:02.581Z,41.55
2023-01-18T10:10:13.871Z,41.57
2023-01-18T10:10:25.425Z,41.57
2023-01-18T10:10:36.770Z,41.56
2023-01-18T10:10:48.325Z,41.57
2023-01-18T10:10:59.632Z,41.59
2023-01-18T10:11:11.193Z,41.58
2023-01-18T10:11:22.485Z,41.58
2023-01-18T10:11:34.046Z,41.57
2023-01-18T10:11:45.334Z,41.58
2023-01-18T10:11:56.900Z,41.59
2023-01-18T10:12:08.195Z,41.58
2023-01-18T10:12:19.912Z,41.58
2023-01-18T10:12:31.420Z,41.58
2023-01-18T10:12:43.146Z,41.55
2023-01-18T10:12:54.775Z,41.58
2023-01-18T10:13:06.385Z,41.57
2023-01-18T10:13:17.667Z,41.58
2023-01-18T10:13:29.219Z,41.55
2023-01-18T10:13:40.557Z,41.60
2023-01-18T10:13:52.113Z,41.56
2023-01-18T10:14:03.404Z,41.59
2023-01-18T10:14:14.950Z,41.58
2023-01-18T10:14:26.236Z,41.59
2023-01-18T10:14:37.790Z,41.59
2023-01-18T10:14:49.102Z,41.58
2023-01-18T10:15:00.662Z,41.59
2023-01-18T10:15:11.970Z,41.56
2023-01-18T10:15:23.563Z,41.59
2023-01-18T10:15:34.863Z,41.58
2023-01-18T10:15:46.424Z,41.59
2023-01-18T10:15:57.772Z,41.58
2023-01-18T10:16:09.361Z,41.56
2023-01-18T10:16:20.800Z,41.58
2023-01-18T10:16:32.463Z,41.59
2023-01-18T10:16:43.777Z,41.58
2023-01-18T10:16:55.688Z,41.59
2023-01-18T10:17:07.005Z,41.59
2023-01-18T10:17:18.535Z,41.58
2023-01-18T10:17:29.818Z,41.58
2023-01-18T10:17:41.379Z,41.58
2023-01-18T10:17:52.685Z,41.58
2023-01-18T10:18:04.241Z,41.61
2023-01-18T10:18:15.610Z,41.60
2023-01-18T10:18:27.154Z,41.59
2023-01-18T10:18:38.439Z,41.60
2023-01-18T10:18:50.000Z,41.59
2023-01-18T10:19:01.298Z,41.59
2023-01-18T10:19:12.848Z,41.59
2023-01-18T10:19:24.146Z,41.59
2023-01-18T10:19:36.033Z,41.59
2023-01-18T10:19:47.320Z,41.58
2023-01-18T10:19:58.875Z,41.56
2023-01-18T10:20:10.185Z,41.58
2023-01-18T10:20:21.740Z,41.58
2023-01-18T10:20:33.036Z,41.58
2023-01-18T10:20:44.585Z,41.60
2023-01-18T10:20:55.916Z,41.61
2023-01-18T10:21:07.462Z,41.59
2023-01-18T10:21:18.746Z,41.60
2023-01-18T10:21:30.295Z,41.56
2023-01-18T10:21:41.576Z,41.59
2023-01-18T10:21:53.152Z,41.55
2023-01-18T10:22:04.455Z,41.59
2023-01-18T10:22:18.048Z,41.59
2023-01-18T10:22:26.532Z,41.62
2023-01-18T10:22:37.846Z,41.59
2023-01-18T10:22:49.388Z,41.61
2023-01-18T10:23:01.020Z,41.59
2023-01-18T10:23:12.659Z,41.60
2023-01-18T10:23:23.937Z,41.61
2023-01-18T10:23:35.487Z,41.60
2023-01-18T10:23:46.774Z,41.60
2023-01-18T10:23:58.323Z,41.61
2023-01-18T10:24:09.685Z,41.58
2023-01-18T10:24:21.243Z,41.60
2023-01-18T10:24:32.527Z,41.59
2023-01-18T10:24:44.069Z,41.62
2023-01-18T10:24:55.358Z,41.60
2023-01-18T10:25:06.903Z,41.61
2023-01-18T10:25:18.200Z,41.60
2023-01-18T10:25:29.762Z,41.59
2023-01-18T10:25:41.062Z,41.61
2023-01-18T10:25:52.599Z,41.58
2023-01-18T10:26:03.959Z,41.59
2023-01-18T10:26:15.520Z,41.61
2023-01-18T10:26:26.818Z,41.62
2023-01-18T10:26:38.379Z,41.59
2023-01-18T10:26:49.655Z,41.61
2023-01-18T10:27:01.213Z,41.60
2023-01-18T10:27:12.509Z,41.61
2023-01-18T10:27:24.047Z,41.62
2023-01-18T10:27:35.323Z,41.60
2023-01-18T10:27:48.408Z,41.60
2023-01-18T10:27:57.703Z,41.61
2023-01-18T10:28:09.284Z,41.59
2023-01-18T10:28:20.580Z,41.61
2023-01-18T10:28:32.133Z,41.61
2023-01-18T10:28:43.429Z,41.62
2023-01-18T10:28:54.961Z,41.61
2023-01-18T10:29:06.240Z,41.62
2023-01-18T10:29:17.780Z,41.58
2023-01-18T10:29:29.066Z,41.60
2023-01-18T10:29:40.609Z,41.61
2023-01-18T10:29:51.893Z,41.62
2023-01-18T10:30:03.444Z,41.60
2023-01-18T10:30:14.723Z,41.61
2023-01-18T10:30:26.268Z,41.59
2023-01-18T10:30:37.551Z,41.59
2023-01-18T10:30:49.133Z,41.57
2023-01-18T10:31:00.415Z,41.64
2023-01-18T10:31:12.013Z,41.60
2023-01-18T10:31:23.393Z,41.62
2023-01-18T10:31:35.197Z,41.61
2023-01-18T10:31:46.561Z,41.60
2023-01-18T10:31:58.135Z,41.63
2023-01-18T10:32:09.415Z,41.60
2023-01-18T10:32:20.971Z,41.62
2023-01-18T10:32:32.265Z,41.62
2023-01-18T10:32:43.820Z,41.61
2023-01-18T10:32:55.104Z,41.59
2023-01-18T10:33:06.665Z,41.60
2023-01-18T10:33:18.005Z,41.61
2023-01-18T10:33:29.546Z,41.61
2023-01-18T10:33:40.852Z,41.63
2023-01-18T10:33:52.413Z,41.62
2023-01-18T10:34:03.708Z,41.61
2023-01-18T10:34:15.256Z,41.61
2023-01-18T10:34:26.534Z,41.61
2023-01-18T10:34:38.077Z,41.61
2023-01-18T10:34:49.379Z,41.59
2023-01-18T10:35:00.923Z,41.61
2023-01-18T10:35:12.235Z,41.60
2023-01-18T10:35:23.844Z,41.63
2023-01-18T10:35:35.160Z,41.64
2023-01-18T10:35:46.707Z,41.60
2023-01-18T10:35:57.981Z,41.61
2023-01-18T10:36:11.559Z,41.61
2023-01-18T10:36:21.043Z,41.63
2023-01-18T10:36:32.616Z,41.63
2023-01-18T10:36:43.916Z,41.62
2023-01-18T10:36:55.465Z,41.64
2023-01-18T10:37:06.751Z,41.61
2023-01-18T10:37:18.293Z,41.62
2023-01-18T10:37:29.623Z,41.63
2023-01-18T10:37:41.172Z,41.62
2023-01-18T10:37:52.472Z,41.61
2023-01-18T10:38:04.053Z,41.62
2023-01-18T10:38:15.352Z,41.63
2023-01-18T10:38:26.924Z,41.60
2023-01-18T10:38:38.218Z,41.61
2023-01-18T10:38:49.761Z,41.64
2023-01-18T10:39:01.047Z,41.64
2023-01-18T10:39:12.584Z,41.63
2023-01-18T10:39:23.878Z,41.64
2023-01-18T10:39:35.495Z,41.62
2023-01-18T10:39:46.782Z,41.60
2023-01-18T10:39:58.323Z,41.61
2023-01-18T10:40:09.601Z,41.63
2023-01-18T10:40:21.153Z,41.62
2023-01-18T10:40:32.454Z,41.62
2023-01-18T10:40:44.005Z,41.62
2023-01-18T10:40:55.305Z,41.61
2023-01-18T10:41:06.859Z,41.65
2023-01-18T10:41:18.155Z,41.62
2023-01-18T10:41:29.722Z,41.64
2023-01-18T10:41:41.010Z,41.60
2023-01-18T10:41:52.556Z,41.61
2023-01-18T10:42:06.113Z,41.63
2023-01-18T10:42:15.518Z,41.71
2023-01-18T10:42:27.056Z,41.65
2023-01-18T10:42:38.365Z,41.61
2023-01-18T10:42:49.916Z,41.61
2023-01-18T10:43:01.924Z,41.63
2023-01-18T10:43:11.292Z,41.66
2023-01-18T10:43:22.860Z,41.66
2023-01-18T10:43:34.177Z,41.64
2023-01-18T10:43:45.722Z,41.62
2023-01-18T10:43:57.029Z,41.64
2023-01-18T10:44:08.583Z,41.64
2023-01-18T10:44:19.871Z,41.63
2023-01-18T10:44:31.413Z,41.61
2023-01-18T10:44:42.699Z,41.64
2023-01-18T10:44:54.254Z,41.65
2023-01-18T10:45:05.543Z,41.64
2023-01-18T10:45:17.108Z,41.64
2023-01-18T10:45:28.439Z,41.63
2023-01-18T10:45:40.074Z,41.61
2023-01-18T10:45:51.432Z,41.65
2023-01-18T10:46:03.077Z,41.64
2023-01-18T10:46:14.397Z,41.63
2023-01-18T10:46:25.933Z,41.61
2023-01-18T10:46:37.247Z,41.64
2023-01-18T10:46:48.797Z,41.61
2023-01-18T10:47:00.132Z,41.62
2023-01-18T10:47:11.685Z,41.63
2023-01-18T10:47:22.979Z,41.63
2023-01-18T10:47:34.534Z,41.65
2023-01-18T10:47:45.831Z,41.64
2023-01-18T10:47:57.377Z,41.65
2023-01-18T10:48:08.666Z,41.64
2023-01-18T10:48:20.259Z,41.62
2023-01-18T10:48:31.550Z,41.62
2023-01-18T10:48:43.094Z,41.63
2023-01-18T10:48:54.380Z,41.63
2023-01-18T10:49:05.915Z,41.66
2023-01-18T10:49:17.192Z,41.63
2023-01-18T10:49:28.735Z,41.61
2023-01-18T10:49:40.029Z,41.65
2023-01-18T10:49:51.589Z,41.64
2023-01-18T10:50:02.888Z,41.63
2023-01-18T10:50:14.451Z,41.64
2023-01-18T10:50:25.740Z,41.65
2023-01-18T10:50:37.287Z,41.65
2023-01-18T10:50:49.136Z,41.66
2023-01-18T10:50:58.626Z,41.67
2023-01-18T10:51:10.180Z,41.65
2023-01-18T10:51:21.502Z,41.65
2023-01-18T10:51:33.070Z,41.63
2023-01-18T10:51:44.376Z,41.64
2023-01-18T10:51:55.929Z,41.66
2023-01-18T10:52:07.207Z,41.65
2023-01-18T10:52:18.747Z,41.64
2023-01-18T10:52:30.047Z,41.63
2023-01-18T10:52:41.609Z,41.63
2023-01-18T10:52:52.900Z,41.65
2023-01-18T10:53:04.452Z,41.65
2023-01-18T10:53:15.759Z,41.64
2023-01-18T10:53:27.304Z,41.64
2023-01-18T10:53:38.603Z,41.64
2023-01-18T10:53:50.164Z,41.65
2023-01-18T10:54:01.453Z,41.62
2023-01-18T10:54:12.999Z,41.63
2023-01-18T10:54:24.290Z,41.64
2023-01-18T10:54:35.839Z,41.63
2023-01-18T10:54:47.136Z,41.65
2023-01-18T10:54:58.696Z,41.63
2023-01-18T10:55:09.996Z,41.65
2023-01-18T10:55:21.551Z,41.63
2023-01-18T10:55:32.845Z,41.63
2023-01-18T10:55:44.394Z,41.63
2023-01-18T10:55:55.699Z,41.65
2023-01-18T10:56:07.244Z,41.64
2023-01-18T10:56:18.559Z,41.61
2023-01-18T10:56:30.097Z,41.62
2023-01-18T10:56:41.393Z,41.63
2023-01-18T10:56:52.979Z,41.63
2023-01-18T10:57:04.276Z,41.59
2023-01-18T10:57:15.825Z,41.63
2023-01-18T10:57:27.113Z,41.64
2023-01-18T10:57:38.653Z,41.65
2023-01-18T10:57:49.948Z,41.63
2023-01-18T10:58:01.818Z,41.63
2023-01-18T10:58:13.157Z,41.65
2023-01-18T10:58:24.711Z,41.64
2023-01-18T10:58:35.995Z,41.63
2023-01-18T10:58:47.540Z,41.66
2023-01-18T10:58:58.840Z,41.64
2023-01-18T10:59:10.398Z,41.64
2023-01-18T10:59:21.690Z,41.66
2023-01-18T10:59:33.249Z,41.65
2023-01-18T10:59:44.539Z,41.63
2023-01-18T10:59:56.105Z,41.64